sensor_id;sensor_type;location;lat;lon;timestamp;temperature;humidity
6843;DHT22;3460;52.028;8.916;2023-03-22T00:00:44;10.50;1.00
6843;DHT22;3460;52.028;8.916;2023-03-22T00:03:11;10.50;1.00
6843;DHT22;3460;52.028;8.916;2023-03-22T00:05:38;10.50;1.00
6843;DHT22;3460;52.028;8.916;2023-03-22T00:08:07;10.50;1.00
6843;DHT22;3460;52.028;8.916;2023-03-22T00:10:36;10.50;1.00
6843;DHT22;3460;52.028;8.916;2023-03-22T00:13:03;10.50;1.00
6843;DHT22;3460;52.028;8.916;2023-03-22T00:15:30;10.50;1.00
6843;DHT22;3460;52.028;8.916;2023-03-22T00:17:57;10.50;1.00
6843;DHT22;3460;52.028;8.916;2023-03-22T00:20:24;10.50;1.00
6843;DHT22;3460;52.028;8.916;2023-03-22T00:22:54;10.50;1.00
6843;DHT22;3460;52.028;8.916;2023-03-22T00:25:23;10.50;1.00
6843;DHT22;3460;52.028;8.916;2023-03-22T00:27:49;10.60;1.00
6843;DHT22;3460;52.028;8.916;2023-03-22T00:30:17;10.60;1.00
6843;DHT22;3460;52.028;8.916;2023-03-22T00:32:44;10.60;1.00
6843;DHT22;3460;52.028;8.916;2023-03-22T00:35:11;10.50;21.80
6843;DHT22;3460;52.028;8.916;2023-03-22T00:37:37;10.20;91.40
6843;DHT22;3460;52.028;8.916;2023-03-22T00:40:06;10.00;99.90
6843;DHT22;3460;52.028;8.916;2023-03-22T00:42:35;9.70;99.90
6843;DHT22;3460;52.028;8.916;2023-03-22T00:45:03;9.50;99.90
6843;DHT22;3460;52.028;8.916;2023-03-22T00:47:30;9.30;99.90
6843;DHT22;3460;52.028;8.916;2023-03-22T00:49:58;9.30;99.90
6843;DHT22;3460;52.028;8.916;2023-03-22T00:52:25;9.30;99.90
6843;DHT22;3460;52.028;8.916;2023-03-22T00:54:53;9.30;99.90
6843;DHT22;3460;52.028;8.916;2023-03-22T00:57:20;9.20;99.90
6843;DHT22;3460;52.028;8.916;2023-03-22T00:59:49;9.20;99.90
6843;DHT22;3460;52.028;8.916;2023-03-22T01:02:17;9.10;99.90
6843;DHT22;3460;52.028;8.916;2023-03-22T01:04:44;9.00;99.90
6843;DHT22;3460;52.028;8.916;2023-03-22T01:07:12;9.00;99.90
6843;DHT22;3460;52.028;8.916;2023-03-22T01:09:42;9.00;99.90
6843;DHT22;3460;52.028;8.916;2023-03-22T01:12:10;9.10;99.90
6843;DHT22;3460;52.028;8.916;2023-03-22T01:14:37;9.10;99.90
6843;DHT22;3460;52.028;8.916;2023-03-22T01:17:06;9.10;99.90
6843;DHT22;3460;52.028;8.916;2023-03-22T01:19:33;9.20;99.90
6843;DHT22;3460;52.028;8.916;2023-03-22T01:22:01;9.40;99.90
6843;DHT22;3460;52.028;8.916;2023-03-22T01:24:28;9.50;99.90
6843;DHT22;3460;52.028;8.916;2023-03-22T01:26:55;9.70;99.90
6843;DHT22;3460;52.028;8.916;2023-03-22T01:29:22;9.80;99.90
6843;DHT22;3460;52.028;8.916;2023-03-22T01:31:49;10.00;99.90
6843;DHT22;3460;52.028;8.916;2023-03-22T01:34:18;10.10;99.90
6843;DHT22;3460;52.028;8.916;2023-03-22T01:36:44;10.30;99.90
6843;DHT22;3460;52.028;8.916;2023-03-22T01:39:11;10.30;99.90
6843;DHT22;3460;52.028;8.916;2023-03-22T01:41:39;10.40;99.90
6843;DHT22;3460;52.028;8.916;2023-03-22T01:44:08;10.40;99.90
6843;DHT22;3460;52.028;8.916;2023-03-22T01:46:36;10.50;99.90
6843;DHT22;3460;52.028;8.916;2023-03-22T01:49:04;10.50;99.90
6843;DHT22;3460;52.028;8.916;2023-03-22T01:51:33;10.60;99.90
6843;DHT22;3460;52.028;8.916;2023-03-22T01:54:02;10.60;99.90
6843;DHT22;3460;52.028;8.916;2023-03-22T01:56:34;10.60;99.90
6843;DHT22;3460;52.028;8.916;2023-03-22T01:59:02;10.60;99.90
6843;DHT22;3460;52.028;8.916;2023-03-22T02:01:29;10.60;96.20
6843;DHT22;3460;52.028;8.916;2023-03-22T02:03:58;10.60;99.90
6843;DHT22;3460;52.028;8.916;2023-03-22T02:06:28;10.60;99.90
6843;DHT22;3460;52.028;8.916;2023-03-22T02:08:58;10.60;99.90
6843;DHT22;3460;52.028;8.916;2023-03-22T02:11:29;10.60;99.90
6843;DHT22;3460;52.028;8.916;2023-03-22T02:14:24;10.60;99.90
6843;DHT22;3460;52.028;8.916;2023-03-22T02:17:05;10.60;99.90
6843;DHT22;3460;52.028;8.916;2023-03-22T02:20:00;10.50;99.90
6843;DHT22;3460;52.028;8.916;2023-03-22T02:26:10;10.60;99.90
6843;DHT22;3460;52.028;8.916;2023-03-22T02:28:42;10.60;99.90
6843;DHT22;3460;52.028;8.916;2023-03-22T02:31:27;10.60;99.90
6843;DHT22;3460;52.028;8.916;2023-03-22T02:34:30;10.50;99.90
6843;DHT22;3460;52.028;8.916;2023-03-22T02:39:52;10.50;99.90
6843;DHT22;3460;52.028;8.916;2023-03-22T02:42:39;10.50;99.90
6843;DHT22;3460;52.028;8.916;2023-03-22T02:45:14;10.60;96.50
6843;DHT22;3460;52.028;8.916;2023-03-22T02:47:49;10.50;99.90
6843;DHT22;3460;52.028;8.916;2023-03-22T02:50:22;10.60;90.20
6843;DHT22;3460;52.028;8.916;2023-03-22T02:52:53;10.60;94.00
6843;DHT22;3460;52.028;8.916;2023-03-22T02:55:26;10.60;99.90
6843;DHT22;3460;52.028;8.916;2023-03-22T02:57:59;10.70;92.70
6843;DHT22;3460;52.028;8.916;2023-03-22T03:00:28;10.70;92.10
6843;DHT22;3460;52.028;8.916;2023-03-22T03:02:58;10.70;75.80
6843;DHT22;3460;52.028;8.916;2023-03-22T03:05:29;10.80;48.00
6843;DHT22;3460;52.028;8.916;2023-03-22T03:07:59;10.80;12.00
6843;DHT22;3460;52.028;8.916;2023-03-22T03:10:29;10.80;9.40
6843;DHT22;3460;52.028;8.916;2023-03-22T03:12:57;10.80;1.00
6843;DHT22;3460;52.028;8.916;2023-03-22T03:15:25;10.90;1.00
6843;DHT22;3460;52.028;8.916;2023-03-22T03:18:02;10.90;1.00
6843;DHT22;3460;52.028;8.916;2023-03-22T03:20:40;10.80;1.00
6843;DHT22;3460;52.028;8.916;2023-03-22T03:23:18;10.80;1.00
6843;DHT22;3460;52.028;8.916;2023-03-22T03:25:58;10.90;1.00
6843;DHT22;3460;52.028;8.916;2023-03-22T03:28:33;10.90;1.00
6843;DHT22;3460;52.028;8.916;2023-03-22T03:31:09;10.90;1.00
6843;DHT22;3460;52.028;8.916;2023-03-22T03:33:43;11.00;1.00
6843;DHT22;3460;52.028;8.916;2023-03-22T03:36:17;11.00;1.00
6843;DHT22;3460;52.028;8.916;2023-03-22T03:38:47;10.90;1.00
6843;DHT22;3460;52.028;8.916;2023-03-22T03:41:19;10.90;1.00
6843;DHT22;3460;52.028;8.916;2023-03-22T03:43:47;10.90;1.00
6843;DHT22;3460;52.028;8.916;2023-03-22T03:46:15;10.90;1.00
6843;DHT22;3460;52.028;8.916;2023-03-22T03:48:46;11.00;1.00
6843;DHT22;3460;52.028;8.916;2023-03-22T03:51:13;10.90;14.50
6843;DHT22;3460;52.028;8.916;2023-03-22T03:53:40;10.90;1.00
6843;DHT22;3460;52.028;8.916;2023-03-22T03:56:08;10.90;30.30
6843;DHT22;3460;52.028;8.916;2023-03-22T03:58:36;10.80;52.90
6843;DHT22;3460;52.028;8.916;2023-03-22T04:01:03;10.90;7.50
6843;DHT22;3460;52.028;8.916;2023-03-22T04:03:30;10.80;1.00
6843;DHT22;3460;52.028;8.916;2023-03-22T04:05:57;10.80;39.10
6843;DHT22;3460;52.028;8.916;2023-03-22T04:08:25;10.90;20.70
6843;DHT22;3460;52.028;8.916;2023-03-22T04:10:52;10.90;28.00
6843;DHT22;3460;52.028;8.916;2023-03-22T04:13:19;10.80;39.20
6843;DHT22;3460;52.028;8.916;2023-03-22T04:15:53;10.80;74.50
6843;DHT22;3460;52.028;8.916;2023-03-22T04:18:21;10.80;78.00
6843;DHT22;3460;52.028;8.916;2023-03-22T04:20:49;10.80;66.20
6843;DHT22;3460;52.028;8.916;2023-03-22T04:23:18;10.80;73.60
6843;DHT22;3460;52.028;8.916;2023-03-22T04:25:47;10.80;90.50
6843;DHT22;3460;52.028;8.916;2023-03-22T04:28:15;10.90;58.00
6843;DHT22;3460;52.028;8.916;2023-03-22T04:30:44;10.80;71.60
6843;DHT22;3460;52.028;8.916;2023-03-22T04:33:17;10.80;95.70
6843;DHT22;3460;52.028;8.916;2023-03-22T04:35:44;10.70;99.90
6843;DHT22;3460;52.028;8.916;2023-03-22T04:38:12;10.70;99.90
6843;DHT22;3460;52.028;8.916;2023-03-22T04:40:39;10.70;99.90
6843;DHT22;3460;52.028;8.916;2023-03-22T04:43:11;10.80;99.50
6843;DHT22;3460;52.028;8.916;2023-03-22T04:45:40;10.70;99.90
6843;DHT22;3460;52.028;8.916;2023-03-22T04:48:08;10.80;91.10
6843;DHT22;3460;52.028;8.916;2023-03-22T04:50:37;10.80;99.90
6843;DHT22;3460;52.028;8.916;2023-03-22T04:53:05;10.70;99.90
6843;DHT22;3460;52.028;8.916;2023-03-22T04:55:32;10.80;93.50
6843;DHT22;3460;52.028;8.916;2023-03-22T04:57:59;10.80;65.90
6843;DHT22;3460;52.028;8.916;2023-03-22T05:00:26;10.80;58.00
6843;DHT22;3460;52.028;8.916;2023-03-22T05:02:55;10.80;77.40
6843;DHT22;3460;52.028;8.916;2023-03-22T05:05:21;10.80;99.90
6843;DHT22;3460;52.028;8.916;2023-03-22T05:07:50;10.80;86.00
6843;DHT22;3460;52.028;8.916;2023-03-22T05:10:16;10.80;97.00
6843;DHT22;3460;52.028;8.916;2023-03-22T05:12:43;10.80;78.20
6843;DHT22;3460;52.028;8.916;2023-03-22T05:15:10;10.90;31.00
6843;DHT22;3460;52.028;8.916;2023-03-22T05:17:37;10.90;17.40
6843;DHT22;3460;52.028;8.916;2023-03-22T05:20:05;10.80;23.50
6843;DHT22;3460;52.028;8.916;2023-03-22T05:22:34;10.90;47.80
6843;DHT22;3460;52.028;8.916;2023-03-22T05:25:08;10.80;68.70
6843;DHT22;3460;52.028;8.916;2023-03-22T05:27:35;10.90;57.90
6843;DHT22;3460;52.028;8.916;2023-03-22T05:30:04;10.90;25.60
6843;DHT22;3460;52.028;8.916;2023-03-22T05:32:31;10.90;27.50
6843;DHT22;3460;52.028;8.916;2023-03-22T05:34:58;10.90;11.10
6843;DHT22;3460;52.028;8.916;2023-03-22T05:37:28;10.90;40.60
6843;DHT22;3460;52.028;8.916;2023-03-22T05:39:54;11.00;45.60
6843;DHT22;3460;52.028;8.916;2023-03-22T05:42:22;10.90;43.20
6843;DHT22;3460;52.028;8.916;2023-03-22T05:44:49;10.90;14.90
6843;DHT22;3460;52.028;8.916;2023-03-22T05:47:16;10.80;72.50
6843;DHT22;3460;52.028;8.916;2023-03-22T05:49:43;10.80;82.90
6843;DHT22;3460;52.028;8.916;2023-03-22T05:52:11;10.80;76.60
6843;DHT22;3460;52.028;8.916;2023-03-22T05:54:38;10.80;85.30
6843;DHT22;3460;52.028;8.916;2023-03-22T05:57:05;10.80;99.90
6843;DHT22;3460;52.028;8.916;2023-03-22T05:59:33;10.80;97.80
6843;DHT22;3460;52.028;8.916;2023-03-22T06:02:00;10.90;73.20
6843;DHT22;3460;52.028;8.916;2023-03-22T06:04:26;10.80;85.30
6843;DHT22;3460;52.028;8.916;2023-03-22T06:06:55;10.80;94.40
6843;DHT22;3460;52.028;8.916;2023-03-22T06:09:21;10.80;99.90
6843;DHT22;3460;52.028;8.916;2023-03-22T06:11:48;10.80;99.90
6843;DHT22;3460;52.028;8.916;2023-03-22T06:14:15;10.80;99.90
6843;DHT22;3460;52.028;8.916;2023-03-22T06:16:44;10.80;57.00
6843;DHT22;3460;52.028;8.916;2023-03-22T06:19:10;10.90;90.60
6843;DHT22;3460;52.028;8.916;2023-03-22T06:21:37;10.90;90.20
6843;DHT22;3460;52.028;8.916;2023-03-22T06:24:04;11.00;92.80
6843;DHT22;3460;52.028;8.916;2023-03-22T06:26:31;11.00;72.40
6843;DHT22;3460;52.028;8.916;2023-03-22T06:28:58;11.10;72.50
6843;DHT22;3460;52.028;8.916;2023-03-22T06:31:27;11.10;18.50
6843;DHT22;3460;52.028;8.916;2023-03-22T06:33:55;11.20;1.00
6843;DHT22;3460;52.028;8.916;2023-03-22T06:36:22;11.30;1.00
6843;DHT22;3460;52.028;8.916;2023-03-22T06:38:49;11.30;1.00
6843;DHT22;3460;52.028;8.916;2023-03-22T06:41:16;11.30;1.00
6843;DHT22;3460;52.028;8.916;2023-03-22T06:43:43;11.50;1.00
6843;DHT22;3460;52.028;8.916;2023-03-22T06:46:09;11.50;1.00
6843;DHT22;3460;52.028;8.916;2023-03-22T06:48:36;11.50;1.00
6843;DHT22;3460;52.028;8.916;2023-03-22T06:51:05;11.60;1.00
6843;DHT22;3460;52.028;8.916;2023-03-22T06:53:32;11.60;1.00
6843;DHT22;3460;52.028;8.916;2023-03-22T06:55:59;11.70;1.00
6843;DHT22;3460;52.028;8.916;2023-03-22T06:58:26;11.80;1.00
6843;DHT22;3460;52.028;8.916;2023-03-22T07:00:54;12.00;99.90
6843;DHT22;3460;52.028;8.916;2023-03-22T07:03:21;12.10;99.90
6843;DHT22;3460;52.028;8.916;2023-03-22T07:05:48;12.10;99.90
6843;DHT22;3460;52.028;8.916;2023-03-22T07:08:16;12.20;1.00
6843;DHT22;3460;52.028;8.916;2023-03-22T07:10:48;12.30;99.90
6843;DHT22;3460;52.028;8.916;2023-03-22T07:13:15;12.40;99.90
6843;DHT22;3460;52.028;8.916;2023-03-22T07:15:41;12.40;1.00
6843;DHT22;3460;52.028;8.916;2023-03-22T07:18:08;12.50;99.90
6843;DHT22;3460;52.028;8.916;2023-03-22T07:20:35;12.50;99.90
6843;DHT22;3460;52.028;8.916;2023-03-22T07:23:05;12.60;1.00
6843;DHT22;3460;52.028;8.916;2023-03-22T07:25:33;12.50;99.90
6843;DHT22;3460;52.028;8.916;2023-03-22T07:28:00;12.40;1.00
6843;DHT22;3460;52.028;8.916;2023-03-22T07:30:26;12.40;99.90
6843;DHT22;3460;52.028;8.916;2023-03-22T07:32:53;12.30;99.90
6843;DHT22;3460;52.028;8.916;2023-03-22T07:35:20;12.30;94.30
6843;DHT22;3460;52.028;8.916;2023-03-22T07:37:47;12.30;99.90
6843;DHT22;3460;52.028;8.916;2023-03-22T07:40:14;12.20;51.40
6843;DHT22;3460;52.028;8.916;2023-03-22T07:42:43;12.20;1.00
6843;DHT22;3460;52.028;8.916;2023-03-22T07:45:10;12.20;90.70
6843;DHT22;3460;52.028;8.916;2023-03-22T07:47:37;12.30;99.90
6843;DHT22;3460;52.028;8.916;2023-03-22T07:50:04;12.30;1.00
6843;DHT22;3460;52.028;8.916;2023-03-22T07:52:31;12.40;36.50
6843;DHT22;3460;52.028;8.916;2023-03-22T07:54:58;12.40;99.90
6843;DHT22;3460;52.028;8.916;2023-03-22T07:57:25;12.40;86.40
6843;DHT22;3460;52.028;8.916;2023-03-22T07:59:53;12.50;99.90
6843;DHT22;3460;52.028;8.916;2023-03-22T08:02:21;12.60;1.00
6843;DHT22;3460;52.028;8.916;2023-03-22T08:04:48;12.60;99.90
6843;DHT22;3460;52.028;8.916;2023-03-22T08:07:15;12.70;1.00
6843;DHT22;3460;52.028;8.916;2023-03-22T08:09:43;12.70;99.90
6843;DHT22;3460;52.028;8.916;2023-03-22T08:12:10;12.60;1.00
6843;DHT22;3460;52.028;8.916;2023-03-22T08:14:37;12.60;99.90
6843;DHT22;3460;52.028;8.916;2023-03-22T08:17:05;12.60;1.00
6843;DHT22;3460;52.028;8.916;2023-03-22T08:19:32;12.60;99.90
6843;DHT22;3460;52.028;8.916;2023-03-22T08:22:00;12.60;99.90
6843;DHT22;3460;52.028;8.916;2023-03-22T08:24:27;12.60;99.90
6843;DHT22;3460;52.028;8.916;2023-03-22T08:26:53;12.60;1.00
6843;DHT22;3460;52.028;8.916;2023-03-22T08:29:20;12.60;1.00
6843;DHT22;3460;52.028;8.916;2023-03-22T08:31:48;12.60;1.00
6843;DHT22;3460;52.028;8.916;2023-03-22T08:34:16;12.60;60.80
6843;DHT22;3460;52.028;8.916;2023-03-22T08:36:43;12.60;99.90
6843;DHT22;3460;52.028;8.916;2023-03-22T08:39:10;12.70;57.30
6843;DHT22;3460;52.028;8.916;2023-03-22T08:41:38;12.80;1.00
6843;DHT22;3460;52.028;8.916;2023-03-22T08:44:05;12.80;99.90
6843;DHT22;3460;52.028;8.916;2023-03-22T08:46:32;12.90;91.40
6843;DHT22;3460;52.028;8.916;2023-03-22T08:48:58;13.00;1.00
6843;DHT22;3460;52.028;8.916;2023-03-22T08:51:29;13.10;99.90
6843;DHT22;3460;52.028;8.916;2023-03-22T08:53:56;13.30;1.00
6843;DHT22;3460;52.028;8.916;2023-03-22T08:56:25;13.40;99.90
6843;DHT22;3460;52.028;8.916;2023-03-22T08:58:53;13.60;1.00
6843;DHT22;3460;52.028;8.916;2023-03-22T09:01:20;13.50;1.00
6843;DHT22;3460;52.028;8.916;2023-03-22T09:03:46;13.40;99.90
6843;DHT22;3460;52.028;8.916;2023-03-22T09:06:13;13.40;1.00
6843;DHT22;3460;52.028;8.916;2023-03-22T09:08:42;13.50;99.90
6843;DHT22;3460;52.028;8.916;2023-03-22T09:11:09;13.60;99.90
6843;DHT22;3460;52.028;8.916;2023-03-22T09:13:36;13.60;99.90
6843;DHT22;3460;52.028;8.916;2023-03-22T09:16:04;13.70;1.00
6843;DHT22;3460;52.028;8.916;2023-03-22T09:18:33;13.80;1.00
6843;DHT22;3460;52.028;8.916;2023-03-22T09:21:00;13.70;1.00
6843;DHT22;3460;52.028;8.916;2023-03-22T09:23:26;13.50;99.90
6843;DHT22;3460;52.028;8.916;2023-03-22T09:25:59;13.50;7.30
6843;DHT22;3460;52.028;8.916;2023-03-22T09:28:26;13.60;1.00
6843;DHT22;3460;52.028;8.916;2023-03-22T09:30:53;13.80;1.00
6843;DHT22;3460;52.028;8.916;2023-03-22T09:33:20;13.80;99.90
6843;DHT22;3460;52.028;8.916;2023-03-22T09:35:46;13.90;99.90
6843;DHT22;3460;52.028;8.916;2023-03-22T09:38:13;14.10;99.90
6843;DHT22;3460;52.028;8.916;2023-03-22T09:40:48;14.10;1.00
6843;DHT22;3460;52.028;8.916;2023-03-22T09:43:18;14.30;99.90
6843;DHT22;3460;52.028;8.916;2023-03-22T09:45:47;14.20;92.50
6843;DHT22;3460;52.028;8.916;2023-03-22T09:48:18;14.20;86.90
6843;DHT22;3460;52.028;8.916;2023-03-22T09:50:48;14.10;1.00
6843;DHT22;3460;52.028;8.916;2023-03-22T09:53:17;14.10;99.90
6843;DHT22;3460;52.028;8.916;2023-03-22T09:55:48;14.20;99.90
6843;DHT22;3460;52.028;8.916;2023-03-22T09:58:23;14.20;99.90
6843;DHT22;3460;52.028;8.916;2023-03-22T10:00:55;14.30;90.10
6843;DHT22;3460;52.028;8.916;2023-03-22T10:03:46;14.30;65.50
6843;DHT22;3460;52.028;8.916;2023-03-22T10:06:17;14.40;99.90
6843;DHT22;3460;52.028;8.916;2023-03-22T10:08:53;14.40;34.20
6843;DHT22;3460;52.028;8.916;2023-03-22T10:11:27;14.40;1.00
6843;DHT22;3460;52.028;8.916;2023-03-22T10:14:03;14.40;1.00
6843;DHT22;3460;52.028;8.916;2023-03-22T10:16:33;14.50;1.00
6843;DHT22;3460;52.028;8.916;2023-03-22T10:19:04;14.40;1.00
6843;DHT22;3460;52.028;8.916;2023-03-22T10:21:33;14.50;1.00
6843;DHT22;3460;52.028;8.916;2023-03-22T10:24:05;14.60;99.90
6843;DHT22;3460;52.028;8.916;2023-03-22T10:26:36;14.70;99.90
6843;DHT22;3460;52.028;8.916;2023-03-22T10:29:11;14.60;99.90
6843;DHT22;3460;52.028;8.916;2023-03-22T10:31:42;14.60;99.90
6843;DHT22;3460;52.028;8.916;2023-03-22T10:34:15;14.50;99.90
6843;DHT22;3460;52.028;8.916;2023-03-22T10:36:46;14.50;99.90
6843;DHT22;3460;52.028;8.916;2023-03-22T10:39:25;14.50;99.90
6843;DHT22;3460;52.028;8.916;2023-03-22T10:41:53;14.70;99.90
6843;DHT22;3460;52.028;8.916;2023-03-22T10:44:23;14.70;99.90
6843;DHT22;3460;52.028;8.916;2023-03-22T10:46:51;14.90;99.90
6843;DHT22;3460;52.028;8.916;2023-03-22T10:49:24;15.00;99.90
6843;DHT22;3460;52.028;8.916;2023-03-22T10:51:56;15.10;1.00
6843;DHT22;3460;52.028;8.916;2023-03-22T10:54:24;15.10;99.90
6843;DHT22;3460;52.028;8.916;2023-03-22T10:56:51;15.10;1.00
6843;DHT22;3460;52.028;8.916;2023-03-22T10:59:47;15.10;99.90
6843;DHT22;3460;52.028;8.916;2023-03-22T11:02:20;14.90;99.90
6843;DHT22;3460;52.028;8.916;2023-03-22T11:04:49;14.90;1.00
6843;DHT22;3460;52.028;8.916;2023-03-22T11:07:28;15.00;99.90
6843;DHT22;3460;52.028;8.916;2023-03-22T11:10:09;15.00;1.00
6843;DHT22;3460;52.028;8.916;2023-03-22T11:12:38;15.10;99.90
6843;DHT22;3460;52.028;8.916;2023-03-22T11:15:19;15.10;99.90
6843;DHT22;3460;52.028;8.916;2023-03-22T11:17:47;15.10;99.90
6843;DHT22;3460;52.028;8.916;2023-03-22T11:20:15;15.10;99.90
6843;DHT22;3460;52.028;8.916;2023-03-22T11:22:44;15.10;99.90
6843;DHT22;3460;52.028;8.916;2023-03-22T11:25:14;15.00;99.90
6843;DHT22;3460;52.028;8.916;2023-03-22T11:27:50;15.10;99.90
6843;DHT22;3460;52.028;8.916;2023-03-22T11:30:20;15.10;1.00
6843;DHT22;3460;52.028;8.916;2023-03-22T11:32:48;15.10;99.90
6843;DHT22;3460;52.028;8.916;2023-03-22T11:35:17;15.10;1.00
6843;DHT22;3460;52.028;8.916;2023-03-22T11:37:47;15.00;1.00
6843;DHT22;3460;52.028;8.916;2023-03-22T11:40:17;15.00;64.60
6843;DHT22;3460;52.028;8.916;2023-03-22T11:42:45;15.00;1.00
6843;DHT22;3460;52.028;8.916;2023-03-22T11:45:14;15.00;7.20
6843;DHT22;3460;52.028;8.916;2023-03-22T11:47:43;14.90;1.00
6843;DHT22;3460;52.028;8.916;2023-03-22T11:50:25;14.90;95.70
6843;DHT22;3460;52.028;8.916;2023-03-22T11:52:53;14.90;33.50
6843;DHT22;3460;52.028;8.916;2023-03-22T11:55:21;14.90;99.90
6843;DHT22;3460;52.028;8.916;2023-03-22T11:57:48;15.00;1.00
6843;DHT22;3460;52.028;8.916;2023-03-22T12:00:19;15.00;1.00
6843;DHT22;3460;52.028;8.916;2023-03-22T12:02:51;14.90;3.30
6843;DHT22;3460;52.028;8.916;2023-03-22T12:05:21;14.90;1.00
6843;DHT22;3460;52.028;8.916;2023-03-22T12:07:54;14.90;1.00
6843;DHT22;3460;52.028;8.916;2023-03-22T12:10:27;14.80;1.00
6843;DHT22;3460;52.028;8.916;2023-03-22T12:12:58;14.90;1.00
6843;DHT22;3460;52.028;8.916;2023-03-22T12:15:28;14.90;99.90
6843;DHT22;3460;52.028;8.916;2023-03-22T12:18:01;14.90;99.90
6843;DHT22;3460;52.028;8.916;2023-03-22T12:20:36;15.10;1.00
6843;DHT22;3460;52.028;8.916;2023-03-22T12:23:12;15.10;99.90
6843;DHT22;3460;52.028;8.916;2023-03-22T12:25:41;15.30;1.00
6843;DHT22;3460;52.028;8.916;2023-03-22T12:28:14;15.30;1.00
6843;DHT22;3460;52.028;8.916;2023-03-22T12:30:45;15.30;1.00
6843;DHT22;3460;52.028;8.916;2023-03-22T12:33:18;15.30;1.00
6843;DHT22;3460;52.028;8.916;2023-03-22T12:35:47;15.40;1.00
6843;DHT22;3460;52.028;8.916;2023-03-22T12:38:23;15.40;1.00
6843;DHT22;3460;52.028;8.916;2023-03-22T12:40:53;15.40;1.00
6843;DHT22;3460;52.028;8.916;2023-03-22T12:43:33;15.50;1.00
6843;DHT22;3460;52.028;8.916;2023-03-22T12:46:03;15.50;1.00
6843;DHT22;3460;52.028;8.916;2023-03-22T12:48:35;15.60;1.00
6843;DHT22;3460;52.028;8.916;2023-03-22T12:51:05;15.60;1.00
6843;DHT22;3460;52.028;8.916;2023-03-22T12:53:34;15.60;1.00
6843;DHT22;3460;52.028;8.916;2023-03-22T12:56:08;15.60;1.00
6843;DHT22;3460;52.028;8.916;2023-03-22T12:58:36;15.70;99.90
6843;DHT22;3460;52.028;8.916;2023-03-22T13:01:15;15.70;99.90
6843;DHT22;3460;52.028;8.916;2023-03-22T13:03:48;15.60;99.90
6843;DHT22;3460;52.028;8.916;2023-03-22T13:06:31;15.60;99.90
6843;DHT22;3460;52.028;8.916;2023-03-22T13:09:12;15.70;1.00
6843;DHT22;3460;52.028;8.916;2023-03-22T13:11:40;15.70;1.00
6843;DHT22;3460;52.028;8.916;2023-03-22T13:14:12;15.60;1.00
6843;DHT22;3460;52.028;8.916;2023-03-22T13:16:55;15.60;99.90
6843;DHT22;3460;52.028;8.916;2023-03-22T13:19:32;15.60;1.00
6843;DHT22;3460;52.028;8.916;2023-03-22T13:22:25;15.60;99.90
6843;DHT22;3460;52.028;8.916;2023-03-22T13:25:13;15.60;99.90
6843;DHT22;3460;52.028;8.916;2023-03-22T13:27:50;15.40;99.90
6843;DHT22;3460;52.028;8.916;2023-03-22T13:30:23;15.40;99.90
6843;DHT22;3460;52.028;8.916;2023-03-22T13:32:53;15.30;1.00
6843;DHT22;3460;52.028;8.916;2023-03-22T13:35:24;15.30;1.00
6843;DHT22;3460;52.028;8.916;2023-03-22T13:37:54;15.20;58.50
6843;DHT22;3460;52.028;8.916;2023-03-22T13:40:32;15.00;1.00
6843;DHT22;3460;52.028;8.916;2023-03-22T13:43:26;14.90;1.00
6843;DHT22;3460;52.028;8.916;2023-03-22T13:46:08;14.80;1.00
6843;DHT22;3460;52.028;8.916;2023-03-22T13:48:42;14.70;99.90
6843;DHT22;3460;52.028;8.916;2023-03-22T13:51:15;14.60;1.00
6843;DHT22;3460;52.028;8.916;2023-03-22T13:53:51;14.60;47.80
6843;DHT22;3460;52.028;8.916;2023-03-22T13:56:32;14.50;1.00
6843;DHT22;3460;52.028;8.916;2023-03-22T13:59:00;14.40;1.00
6843;DHT22;3460;52.028;8.916;2023-03-22T14:01:31;14.20;1.00
6843;DHT22;3460;52.028;8.916;2023-03-22T14:04:05;14.20;1.00
6843;DHT22;3460;52.028;8.916;2023-03-22T14:06:40;14.10;1.00
6843;DHT22;3460;52.028;8.916;2023-03-22T14:09:13;14.00;99.90
6843;DHT22;3460;52.028;8.916;2023-03-22T14:11:52;14.10;55.20
6843;DHT22;3460;52.028;8.916;2023-03-22T14:14:23;14.20;1.00
6843;DHT22;3460;52.028;8.916;2023-03-22T14:16:57;14.20;1.00
6843;DHT22;3460;52.028;8.916;2023-03-22T14:19:28;14.20;1.00
6843;DHT22;3460;52.028;8.916;2023-03-22T14:22:00;14.20;1.00
6843;DHT22;3460;52.028;8.916;2023-03-22T14:24:29;14.20;1.00
6843;DHT22;3460;52.028;8.916;2023-03-22T14:26:58;14.20;99.90
6843;DHT22;3460;52.028;8.916;2023-03-22T14:29:26;14.30;1.00
6843;DHT22;3460;52.028;8.916;2023-03-22T14:31:55;14.20;99.90
6843;DHT22;3460;52.028;8.916;2023-03-22T14:34:24;14.20;42.10
6843;DHT22;3460;52.028;8.916;2023-03-22T14:36:57;14.10;1.00
6843;DHT22;3460;52.028;8.916;2023-03-22T14:39:30;14.10;99.90
6843;DHT22;3460;52.028;8.916;2023-03-22T14:42:00;14.10;77.60
6843;DHT22;3460;52.028;8.916;2023-03-22T14:44:28;14.10;20.60
6843;DHT22;3460;52.028;8.916;2023-03-22T14:47:08;14.00;1.00
6843;DHT22;3460;52.028;8.916;2023-03-22T14:49:38;14.00;97.50
6843;DHT22;3460;52.028;8.916;2023-03-22T14:52:15;13.90;1.00
6843;DHT22;3460;52.028;8.916;2023-03-22T14:54:43;13.90;1.00
6843;DHT22;3460;52.028;8.916;2023-03-22T14:57:13;13.90;1.00
6843;DHT22;3460;52.028;8.916;2023-03-22T14:59:42;13.80;73.70
6843;DHT22;3460;52.028;8.916;2023-03-22T15:02:29;13.90;99.90
6843;DHT22;3460;52.028;8.916;2023-03-22T15:04:57;13.80;99.90
6843;DHT22;3460;52.028;8.916;2023-03-22T15:07:26;13.90;99.90
6843;DHT22;3460;52.028;8.916;2023-03-22T15:10:09;13.90;81.30
6843;DHT22;3460;52.028;8.916;2023-03-22T15:12:36;13.90;99.90
6843;DHT22;3460;52.028;8.916;2023-03-22T15:15:04;13.90;99.90
6843;DHT22;3460;52.028;8.916;2023-03-22T15:17:31;13.90;82.60
6843;DHT22;3460;52.028;8.916;2023-03-22T15:20:02;13.90;1.00
6843;DHT22;3460;52.028;8.916;2023-03-22T15:22:32;13.90;1.00
6843;DHT22;3460;52.028;8.916;2023-03-22T15:25:00;13.90;1.00
6843;DHT22;3460;52.028;8.916;2023-03-22T15:27:28;13.90;24.70
6843;DHT22;3460;52.028;8.916;2023-03-22T15:29:57;13.90;1.00
6843;DHT22;3460;52.028;8.916;2023-03-22T15:32:25;13.90;7.40
6843;DHT22;3460;52.028;8.916;2023-03-22T15:34:53;13.90;1.00
6843;DHT22;3460;52.028;8.916;2023-03-22T15:37:25;13.90;99.90
6843;DHT22;3460;52.028;8.916;2023-03-22T15:39:56;13.80;99.90
6843;DHT22;3460;52.028;8.916;2023-03-22T15:42:26;13.90;99.90
6843;DHT22;3460;52.028;8.916;2023-03-22T15:44:59;13.90;99.90
6843;DHT22;3460;52.028;8.916;2023-03-22T15:47:29;13.90;99.90
6843;DHT22;3460;52.028;8.916;2023-03-22T15:50:08;13.90;1.00
6843;DHT22;3460;52.028;8.916;2023-03-22T15:52:36;13.70;99.90
6843;DHT22;3460;52.028;8.916;2023-03-22T15:55:15;13.70;99.90
6843;DHT22;3460;52.028;8.916;2023-03-22T15:57:46;13.70;99.90
6843;DHT22;3460;52.028;8.916;2023-03-22T16:00:20;13.80;99.90
6843;DHT22;3460;52.028;8.916;2023-03-22T16:02:54;13.80;99.90
6843;DHT22;3460;52.028;8.916;2023-03-22T16:05:21;13.80;99.90
6843;DHT22;3460;52.028;8.916;2023-03-22T16:07:48;13.80;99.90
6843;DHT22;3460;52.028;8.916;2023-03-22T16:10:18;13.80;99.90
6843;DHT22;3460;52.028;8.916;2023-03-22T16:12:46;13.80;99.90
6843;DHT22;3460;52.028;8.916;2023-03-22T16:15:14;13.70;99.90
6843;DHT22;3460;52.028;8.916;2023-03-22T16:17:41;13.70;1.00
6843;DHT22;3460;52.028;8.916;2023-03-22T16:20:09;13.70;99.90
6843;DHT22;3460;52.028;8.916;2023-03-22T16:22:37;13.70;99.90
6843;DHT22;3460;52.028;8.916;2023-03-22T16:25:05;13.70;99.90
6843;DHT22;3460;52.028;8.916;2023-03-22T16:27:33;13.70;99.90
6843;DHT22;3460;52.028;8.916;2023-03-22T16:30:00;13.70;99.90
6843;DHT22;3460;52.028;8.916;2023-03-22T16:32:28;13.60;99.90